createdAt,value
2019-05-06T00:01:39.534Z,43.20
2019-05-06T00:04:09.935Z,43.00
2019-05-06T00:06:40.057Z,43.00
2019-05-06T00:09:10.535Z,43.50
2019-05-06T00:11:40.689Z,43.40
2019-05-06T00:14:10.743Z,43.20
2019-05-06T00:16:40.880Z,42.90
2019-05-06T00:19:10.954Z,43.40
2019-05-06T00:21:41.096Z,43.10
2019-05-06T00:24:11.355Z,43.80
2019-05-06T00:27:06.506Z,43.30
2019-05-06T00:29:36.659Z,43.60
2019-05-06T00:32:06.814Z,43.40
2019-05-06T00:34:36.900Z,43.70
2019-05-06T00:37:07.344Z,43.60
2019-05-06T00:39:44.675Z,43.70
2019-05-06T00:42:44.507Z,43.30
2019-05-06T00:45:15.437Z,43.40
2019-05-06T00:47:45.575Z,43.20
2019-05-06T00:50:17.705Z,43.10
2019-05-06T00:52:48.545Z,43.40
2019-05-06T00:55:18.611Z,43.40
2019-05-06T00:57:48.952Z,43.20
2019-05-06T01:00:24.241Z,43.00
2019-05-06T01:02:54.248Z,43.10
2019-05-06T01:05:24.980Z,43.30
2019-05-06T01:07:55.482Z,43.00
2019-05-06T01:10:26.112Z,42.70
2019-05-06T01:13:17.670Z,42.60
2019-05-06T01:15:47.752Z,42.50
2019-05-06T01:18:17.928Z,43.40
2019-05-06T01:20:47.969Z,43.40
2019-05-06T01:23:19.108Z,43.30
2019-05-06T01:25:49.179Z,43.60
2019-05-06T01:28:19.338Z,43.90
2019-05-06T01:30:49.452Z,43.50
2019-05-06T01:33:19.597Z,43.80
2019-05-06T01:35:49.654Z,44.10
2019-05-06T01:38:30.846Z,43.80
2019-05-06T01:41:13.629Z,43.70
2019-05-06T01:43:45.472Z,43.70
2019-05-06T01:46:15.554Z,43.50
2019-05-06T01:48:48.461Z,43.50
2019-05-06T01:51:19.873Z,43.60
2019-05-06T01:53:51.477Z,43.80
2019-05-06T01:56:21.541Z,43.90
2019-05-06T01:58:53.549Z,43.70
2019-05-06T02:01:25.092Z,43.40
2019-05-06T02:03:55.636Z,43.40
2019-05-06T02:06:26.956Z,43.60
2019-05-06T02:08:57.022Z,43.80
2019-05-06T02:11:27.176Z,43.70
2019-05-06T02:13:57.654Z,43.50
2019-05-06T02:16:27.730Z,43.20
2019-05-06T02:18:57.855Z,43.00
2019-05-06T02:21:45.602Z,43.00
2019-05-06T02:24:20.919Z,42.90
2019-05-06T02:26:51.140Z,42.60
2019-05-06T02:29:24.677Z,42.80
2019-05-06T02:32:26.292Z,42.90
2019-05-06T02:35:01.467Z,42.60
2019-05-06T02:37:42.165Z,42.60
2019-05-06T02:40:25.255Z,42.70
2019-05-06T02:42:55.998Z,42.90
2019-05-06T02:45:26.737Z,42.90
2019-05-06T02:48:09.001Z,42.90
2019-05-06T02:51:03.797Z,43.00
2019-05-06T02:53:33.577Z,42.80
2019-05-06T02:56:04.671Z,42.90
2019-05-06T02:58:36.108Z,42.80
2019-05-06T03:01:06.215Z,42.70
2019-05-06T03:03:37.507Z,42.80
2019-05-06T03:06:08.001Z,42.60
2019-05-06T03:08:38.154Z,42.60
2019-05-06T03:11:08.573Z,42.50
2019-05-06T03:13:38.645Z,42.40
2019-05-06T03:16:08.813Z,42.60
2019-05-06T03:18:38.960Z,42.50
2019-05-06T03:21:28.563Z,42.50
2019-05-06T03:24:07.442Z,42.10
2019-05-06T03:26:36.018Z,42.20
2019-05-06T03:29:06.140Z,42.20
2019-05-06T03:31:36.721Z,42.20
2019-05-06T03:34:35.421Z,42.20
2019-05-06T03:36:42.260Z,42.30
2019-05-06T03:39:13.881Z,42.60
2019-05-06T03:41:43.979Z,42.60
2019-05-06T03:44:16.712Z,42.70
2019-05-06T03:47:08.553Z,42.60
2019-05-06T03:49:42.914Z,42.50
2019-05-06T03:52:14.173Z,42.70
2019-05-06T03:54:45.919Z,42.60
2019-05-06T03:57:17.648Z,42.40
2019-05-06T03:59:52.864Z,42.60
2019-05-06T04:02:24.275Z,42.80
2019-05-06T04:04:56.803Z,42.80
2019-05-06T04:07:27.081Z,42.90
2019-05-06T04:09:57.483Z,42.50
2019-05-06T04:12:32.850Z,42.50
2019-05-06T04:15:03.912Z,43.30
2019-05-06T04:17:44.409Z,42.80
2019-05-06T04:20:23.615Z,43.00
2019-05-06T04:23:15.298Z,42.80
2019-05-06T04:25:54.434Z,42.70
2019-05-06T04:28:27.320Z,42.70
2019-05-06T04:30:57.758Z,43.00
2019-05-06T04:33:28.154Z,42.80
2019-05-06T04:35:58.214Z,42.70
2019-05-06T04:38:28.382Z,43.00
2019-05-06T04:40:58.823Z,42.70
2019-05-06T04:43:29.272Z,42.80
2019-05-06T04:45:59.400Z,42.70
2019-05-06T04:48:32.663Z,43.00
2019-05-06T04:51:03.367Z,42.70
2019-05-06T04:53:34.224Z,42.90
2019-05-06T04:56:04.809Z,42.70
2019-05-06T04:58:34.873Z,42.30
2019-05-06T05:01:05.303Z,42.50
2019-05-06T05:03:35.726Z,42.70
2019-05-06T05:06:06.085Z,42.50
2019-05-06T05:08:39.296Z,42.60
2019-05-06T05:11:28.239Z,42.40
2019-05-06T05:14:08.737Z,42.30
2019-05-06T05:16:56.481Z,42.60
2019-05-06T05:19:27.823Z,42.90
2019-05-06T05:22:07.052Z,43.40
2019-05-06T05:24:38.120Z,43.70
2019-05-06T05:27:08.939Z,43.30
2019-05-06T05:29:39.375Z,43.90
2019-05-06T05:32:09.525Z,43.50
2019-05-06T05:34:40.838Z,43.50
2019-05-06T05:37:12.319Z,42.90
2019-05-06T05:39:44.183Z,42.80
2019-05-06T05:42:34.455Z,42.40
2019-05-06T05:45:05.074Z,42.40
2019-05-06T05:47:35.426Z,42.50
2019-05-06T05:50:23.625Z,43.40
2019-05-06T05:52:53.771Z,42.60
2019-05-06T05:55:23.809Z,42.80
2019-05-06T05:57:53.956Z,42.60
2019-05-06T06:00:25.685Z,42.50
2019-05-06T06:02:55.958Z,42.30
2019-05-06T06:05:26.017Z,42.50
2019-05-06T06:07:56.213Z,42.50
2019-05-06T06:10:35.693Z,42.50
2019-05-06T06:13:06.061Z,42.40
2019-05-06T06:15:47.485Z,42.10
2019-05-06T06:18:25.733Z,42.40
2019-05-06T06:21:25.673Z,42.30
2019-05-06T06:23:55.585Z,42.40
2019-05-06T06:26:25.803Z,42.10
2019-05-06T06:28:55.903Z,42.20
2019-05-06T06:31:52.408Z,42.50
2019-05-06T06:34:34.495Z,42.60
2019-05-06T06:37:29.540Z,42.50
2019-05-06T06:40:02.557Z,43.10
2019-05-06T06:42:33.530Z,43.30
2019-05-06T06:45:04.317Z,42.80
2019-05-06T06:47:34.438Z,42.20
2019-05-06T06:50:04.999Z,42.30
2019-05-06T06:52:35.057Z,42.80
2019-05-06T06:55:05.861Z,43.40
2019-05-06T06:57:58.615Z,41.90
2019-05-06T07:00:38.246Z,41.60
2019-05-06T07:03:14.689Z,41.70
2019-05-06T07:05:52.748Z,42.20
2019-05-06T07:08:34.368Z,41.90
2019-05-06T07:10:55.047Z,41.50
2019-05-06T07:13:25.278Z,41.80
2019-05-06T07:15:55.339Z,41.90
2019-05-06T07:18:25.441Z,41.80
2019-05-06T07:21:05.930Z,41.50
2019-05-06T07:23:36.750Z,41.30
2019-05-06T07:26:06.974Z,41.00
2019-05-06T07:28:37.123Z,40.80
2019-05-06T07:31:18.706Z,40.90
2019-05-06T07:33:39.108Z,40.40
2019-05-06T07:36:09.243Z,40.70
2019-05-06T07:38:42.807Z,40.40
2019-05-06T07:41:18.401Z,40.30
2019-05-06T07:44:06.002Z,40.60
2019-05-06T07:46:45.402Z,40.50
2019-05-06T07:49:16.967Z,40.10
2019-05-06T07:51:47.135Z,40.50
2019-05-06T07:54:17.275Z,40.60
2019-05-06T07:56:48.157Z,40.00
2019-05-06T07:59:18.679Z,39.60
2019-05-06T08:01:48.840Z,39.50
2019-05-06T08:04:18.999Z,40.30
2019-05-06T08:06:49.072Z,41.10
2019-05-06T08:09:21.989Z,39.50
2019-05-06T08:11:53.078Z,39.40
2019-05-06T08:14:25.068Z,39.70
2019-05-06T08:17:03.093Z,37.50
2019-05-06T08:19:33.789Z,37.60
2019-05-06T08:22:08.002Z,37.50
2019-05-06T08:24:38.148Z,38.40
2019-05-06T08:27:08.336Z,38.50
2019-05-06T08:29:38.518Z,38.00
2019-05-06T08:32:09.069Z,38.20
2019-05-06T08:34:39.215Z,38.90
2019-05-06T08:37:32.082Z,38.80
2019-05-06T08:40:03.316Z,39.80
2019-05-06T08:42:35.881Z,38.60
2019-05-06T08:45:07.254Z,35.50
2019-05-06T08:47:37.504Z,35.50
2019-05-06T08:50:12.855Z,36.10
2019-05-06T08:53:13.647Z,35.70
2019-05-06T08:55:44.629Z,37.50
2019-05-06T08:58:14.785Z,36.60
2019-05-06T09:00:53.205Z,35.10
2019-05-06T09:03:22.800Z,35.10
2019-05-06T09:05:55.994Z,34.90
2019-05-06T09:08:26.328Z,34.00
2019-05-06T09:10:57.426Z,34.30
2019-05-06T09:13:27.501Z,35.10
2019-05-06T09:15:57.651Z,35.50
2019-05-06T09:18:27.790Z,34.50
2019-05-06T09:20:57.926Z,35.10
2019-05-06T09:23:28.066Z,35.70
2019-05-06T09:25:58.569Z,36.50
2019-05-06T09:28:34.873Z,36.80
2019-05-06T09:31:24.180Z,35.90
2019-05-06T09:34:02.700Z,34.00
2019-05-06T09:36:43.731Z,33.50
2019-05-06T09:39:07.046Z,31.40
2019-05-06T09:41:37.527Z,31.70
2019-05-06T09:44:07.603Z,31.60
2019-05-06T09:46:37.678Z,32.40
2019-05-06T09:49:22.752Z,32.40
2019-05-06T09:51:52.981Z,34.70
2019-05-06T09:54:36.802Z,33.40
2019-05-06T09:57:12.871Z,33.50
2019-05-06T09:59:43.828Z,34.00
2019-05-06T10:02:14.332Z,37.50
2019-05-06T10:04:44.476Z,38.10
2019-05-06T10:07:14.630Z,35.10
2019-05-06T10:09:44.737Z,34.20
2019-05-06T10:12:14.904Z,33.70
2019-05-06T10:14:45.614Z,33.20
2019-05-06T10:17:16.821Z,33.00
2019-05-06T10:19:48.146Z,33.80
2019-05-06T10:22:18.244Z,34.20
2019-05-06T10:24:48.284Z,33.70
2019-05-06T10:27:18.344Z,32.90
2019-05-06T10:30:07.460Z,32.10
2019-05-06T10:32:59.438Z,31.80
2019-05-06T10:35:29.827Z,31.60
2019-05-06T10:38:28.915Z,30.60
2019-05-06T10:41:06.694Z,30.90
2019-05-06T10:43:53.056Z,30.70
2019-05-06T10:46:23.126Z,31.30
2019-05-06T10:48:53.610Z,31.80
2019-05-06T10:51:32.241Z,30.90
2019-05-06T10:54:03.155Z,30.30
2019-05-06T10:56:56.902Z,30.30
2019-05-06T10:59:23.730Z,30.60
2019-05-06T11:01:57.476Z,31.50
2019-05-06T11:04:27.635Z,32.20
2019-05-06T11:06:57.790Z,32.10
2019-05-06T11:09:27.961Z,31.80
2019-05-06T11:11:58.090Z,31.90
2019-05-06T11:14:28.160Z,32.20
2019-05-06T11:16:58.213Z,32.30
2019-05-06T11:19:28.646Z,32.60
2019-05-06T11:21:58.762Z,32.20
2019-05-06T11:24:29.148Z,32.70
2019-05-06T11:26:59.337Z,32.50
2019-05-06T11:29:33.901Z,32.60
2019-05-06T11:32:15.299Z,32.30
2019-05-06T11:35:12.308Z,31.90
2019-05-06T11:37:51.018Z,31.10
2019-05-06T11:40:20.413Z,31.80
2019-05-06T11:42:52.551Z,32.20
2019-05-06T11:45:22.853Z,32.00
2019-05-06T11:47:55.741Z,32.10
2019-05-06T11:50:27.086Z,31.50
2019-05-06T11:52:57.615Z,31.00
2019-05-06T11:55:31.865Z,31.60
2019-05-06T11:57:59.626Z,31.00
2019-05-06T12:00:35.938Z,30.80
2019-05-06T12:03:06.365Z,31.00
2019-05-06T12:05:36.519Z,31.50
2019-05-06T12:08:08.340Z,31.50
2019-05-06T12:10:38.456Z,32.40
2019-05-06T12:13:09.048Z,32.90
2019-05-06T12:15:39.547Z,33.40
2019-05-06T12:18:09.599Z,33.30
2019-05-06T12:20:39.753Z,32.50
2019-05-06T12:23:09.918Z,31.90
2019-05-06T12:25:44.805Z,31.30
2019-05-06T12:28:12.672Z,31.70
2019-05-06T12:30:42.850Z,32.30
2019-05-06T12:33:35.173Z,31.50
2019-05-06T12:36:22.977Z,31.70
2019-05-06T12:39:16.154Z,31.70
2019-05-06T12:42:07.205Z,31.60
2019-05-06T12:44:38.962Z,31.50
2019-05-06T12:47:32.815Z,32.60
2019-05-06T12:50:03.769Z,32.50
2019-05-06T12:52:33.977Z,32.90
2019-05-06T12:55:17.413Z,32.30
2019-05-06T12:57:36.965Z,30.10
2019-05-06T13:00:08.910Z,30.40
2019-05-06T13:02:39.484Z,31.40
2019-05-06T13:05:12.463Z,32.20
2019-05-06T13:07:48.435Z,32.80
2019-05-06T13:10:23.800Z,31.90
2019-05-06T13:12:59.003Z,31.70
2019-05-06T13:15:29.128Z,32.30
2019-05-06T13:18:06.305Z,30.70
2019-05-06T13:20:37.378Z,30.60
2019-05-06T13:23:20.932Z,31.10
2019-05-06T13:25:47.239Z,29.60
2019-05-06T13:28:19.513Z,30.30
2019-05-06T13:30:49.725Z,30.00
2019-05-06T13:33:30.015Z,28.90
2019-05-06T13:36:00.552Z,29.40
2019-05-06T13:38:32.073Z,28.90
2019-05-06T13:41:03.323Z,29.40
2019-05-06T13:43:44.525Z,29.50
2019-05-06T13:46:33.327Z,30.00
2019-05-06T13:49:22.716Z,30.60
2019-05-06T13:52:04.695Z,30.40
2019-05-06T13:54:35.054Z,30.00
2019-05-06T13:57:05.496Z,29.90
2019-05-06T13:59:36.920Z,30.00
2019-05-06T14:02:25.229Z,30.60
2019-05-06T14:04:55.698Z,30.50
2019-05-06T14:07:26.137Z,30.10
2019-05-06T14:09:56.431Z,29.80
2019-05-06T14:12:26.410Z,30.00
2019-05-06T14:14:56.509Z,30.10
2019-05-06T14:17:26.803Z,30.60
2019-05-06T14:19:56.893Z,31.00
2019-05-06T14:22:27.053Z,31.10
2019-05-06T14:25:12.539Z,30.90
2019-05-06T14:27:43.450Z,30.00
2019-05-06T14:30:22.783Z,30.90
2019-05-06T14:32:53.543Z,30.60
2019-05-06T14:35:23.849Z,30.50
2019-05-06T14:37:54.373Z,30.00
2019-05-06T14:40:26.138Z,30.70
2019-05-06T14:42:56.244Z,30.20
2019-05-06T14:45:26.537Z,30.00
2019-05-06T14:47:56.709Z,30.20
2019-05-06T14:50:33.344Z,30.40
2019-05-06T14:53:02.678Z,31.20
2019-05-06T14:55:34.043Z,31.10
2019-05-06T14:58:04.636Z,30.40
2019-05-06T15:00:35.469Z,30.90
2019-05-06T15:03:05.543Z,31.40
2019-05-06T15:05:36.910Z,32.60
2019-05-06T15:08:07.019Z,34.50
2019-05-06T15:10:37.508Z,35.50
2019-05-06T15:13:07.943Z,36.40
2019-05-06T15:15:38.436Z,36.30
2019-05-06T15:18:08.585Z,36.30
2019-05-06T15:20:42.367Z,36.80
2019-05-06T15:23:13.105Z,36.50
2019-05-06T15:25:43.426Z,37.00
2019-05-06T15:28:13.613Z,37.30
2019-05-06T15:31:08.777Z,37.20
2019-05-06T15:33:43.397Z,37.00
2019-05-06T15:36:22.206Z,36.50
2019-05-06T15:38:52.762Z,36.70
2019-05-06T15:41:23.614Z,36.50
2019-05-06T15:43:54.911Z,36.80
2019-05-06T15:46:25.067Z,37.10
2019-05-06T15:48:55.263Z,37.20
2019-05-06T15:51:34.710Z,37.30
2019-05-06T15:54:06.000Z,37.30
2019-05-06T15:56:36.462Z,36.60
2019-05-06T15:59:06.592Z,36.80
2019-05-06T16:01:37.121Z,36.90
2019-05-06T16:04:07.177Z,37.30
2019-05-06T16:06:37.355Z,37.60
2019-05-06T16:09:07.651Z,37.70
2019-05-06T16:11:39.391Z,37.60
2019-05-06T16:14:12.298Z,37.40
2019-05-06T16:16:42.953Z,37.40
2019-05-06T16:19:13.383Z,37.10
2019-05-06T16:21:45.226Z,36.80
2019-05-06T16:24:23.104Z,37.00
2019-05-06T16:26:53.656Z,36.40
2019-05-06T16:29:35.556Z,36.40
2019-05-06T16:32:10.069Z,36.80
2019-05-06T16:34:40.279Z,36.10
2019-05-06T16:37:12.559Z,36.30
2019-05-06T16:39:42.114Z,36.30
2019-05-06T16:42:13.390Z,36.10
2019-05-06T16:44:45.402Z,35.90
2019-05-06T16:47:35.367Z,35.70
2019-05-06T16:50:08.582Z,33.80
2019-05-06T16:52:38.726Z,33.40
2019-05-06T16:55:14.435Z,33.10
2019-05-06T16:57:52.427Z,32.30
2019-05-06T17:00:24.313Z,32.80
2019-05-06T17:03:08.866Z,33.20
2019-05-06T17:05:56.516Z,33.50
2019-05-06T17:08:27.022Z,33.70
2019-05-06T17:10:57.227Z,34.70
2019-05-06T17:13:27.480Z,35.80
2019-05-06T17:15:57.631Z,36.30
2019-05-06T17:18:27.827Z,36.70
2019-05-06T17:20:57.982Z,37.00
2019-05-06T17:23:28.167Z,36.70
2019-05-06T17:25:58.666Z,37.00
2019-05-06T17:28:34.346Z,37.30
2019-05-06T17:31:27.157Z,37.80
2019-05-06T17:33:58.115Z,38.30
2019-05-06T17:36:30.065Z,38.50
2019-05-06T17:39:02.560Z,38.80
2019-05-06T17:41:45.185Z,39.00
2019-05-06T17:44:07.299Z,39.10
2019-05-06T17:46:44.068Z,39.00
2019-05-06T17:49:20.871Z,39.20
2019-05-06T17:52:07.425Z,39.20
2019-05-06T17:54:37.972Z,38.70
2019-05-06T17:57:08.031Z,39.00
2019-05-06T17:59:38.183Z,39.30
2019-05-06T18:02:12.422Z,39.20
2019-05-06T18:04:43.192Z,39.40
2019-05-06T18:07:14.244Z,39.70
2019-05-06T18:09:44.482Z,39.30
2019-05-06T18:12:16.273Z,39.40
2019-05-06T18:14:46.430Z,39.50
2019-05-06T18:17:16.500Z,39.90
2019-05-06T18:19:46.869Z,39.90
2019-05-06T18:22:17.045Z,39.80
2019-05-06T18:24:48.100Z,39.70
2019-05-06T18:27:18.398Z,39.80
2019-05-06T18:29:48.554Z,40.10
2019-05-06T18:32:19.808Z,40.10
2019-05-06T18:34:49.905Z,40.20
2019-05-06T18:37:19.987Z,40.10
2019-05-06T18:39:50.040Z,40.80
2019-05-06T18:42:23.549Z,40.80
2019-05-06T18:44:52.422Z,40.30
2019-05-06T18:47:22.956Z,40.10
2019-05-06T18:49:53.108Z,39.90
2019-05-06T18:52:23.661Z,40.20
2019-05-06T18:54:53.808Z,40.00
2019-05-06T18:57:24.348Z,40.30
2019-05-06T18:59:54.531Z,40.20
2019-05-06T19:02:26.778Z,40.30
2019-05-06T19:05:16.215Z,40.20
2019-05-06T19:07:46.915Z,40.00
2019-05-06T19:10:33.231Z,40.20
2019-05-06T19:13:03.118Z,40.40
2019-05-06T19:15:33.966Z,40.20
2019-05-06T19:18:04.628Z,40.10
2019-05-06T19:20:34.782Z,40.00
2019-05-06T19:23:04.956Z,40.20
2019-05-06T19:25:35.473Z,40.40
2019-05-06T19:28:06.029Z,41.00
2019-05-06T19:30:36.550Z,40.50
2019-05-06T19:33:07.136Z,40.60
2019-05-06T19:35:37.686Z,41.30
2019-05-06T19:38:08.373Z,41.60
2019-05-06T19:40:38.607Z,41.00
2019-05-06T19:43:08.702Z,41.30
2019-05-06T19:45:38.894Z,41.90
2019-05-06T19:48:09.438Z,41.90
2019-05-06T19:50:39.623Z,41.20
2019-05-06T19:53:11.844Z,41.80
2019-05-06T19:55:46.696Z,42.30
2019-05-06T19:58:15.052Z,42.60
2019-05-06T20:00:45.252Z,43.10
2019-05-06T20:03:16.087Z,43.00
2019-05-06T20:06:04.028Z,43.00
2019-05-06T20:08:49.338Z,42.90
2019-05-06T20:11:38.487Z,42.90
2019-05-06T20:14:08.707Z,42.70
2019-05-06T20:16:38.894Z,42.70
2019-05-06T20:19:08.952Z,42.80
2019-05-06T20:21:39.456Z,42.50
2019-05-06T20:24:09.892Z,43.20
2019-05-06T20:26:40.206Z,42.90
2019-05-06T20:29:10.260Z,42.90
2019-05-06T20:31:42.763Z,42.90
2019-05-06T20:34:12.905Z,43.60
2019-05-06T20:36:43.272Z,43.30
2019-05-06T20:39:13.449Z,43.10
2019-05-06T20:41:43.984Z,43.50
2019-05-06T20:44:14.150Z,43.60
2019-05-06T20:46:44.288Z,44.00
2019-05-06T20:49:14.854Z,43.80
2019-05-06T20:51:45.048Z,43.70
2019-05-06T20:54:15.620Z,43.40
2019-05-06T20:56:45.814Z,43.50
2019-05-06T20:59:16.747Z,42.70
2019-05-06T21:01:46.945Z,42.70
2019-05-06T21:04:17.104Z,42.70
2019-05-06T21:06:47.278Z,42.70
2019-05-06T21:09:18.460Z,42.50
2019-05-06T21:11:48.541Z,42.80
2019-05-06T21:14:18.716Z,43.00
2019-05-06T21:16:48.869Z,43.20
2019-05-06T21:19:18.947Z,43.50
2019-05-06T21:21:49.079Z,43.40
2019-05-06T21:24:19.264Z,42.90
2019-05-06T21:26:49.399Z,42.80
2019-05-06T21:29:19.493Z,43.00
2019-05-06T21:31:49.565Z,42.90
2019-05-06T21:34:22.204Z,43.10
2019-05-06T21:36:53.232Z,43.70
2019-05-06T21:39:23.615Z,43.30
2019-05-06T21:41:53.753Z,42.60
2019-05-06T21:44:23.912Z,43.20
2019-05-06T21:46:54.435Z,42.80
2019-05-06T21:49:24.581Z,42.80
2019-05-06T21:51:54.744Z,43.10
2019-05-06T21:54:24.867Z,43.10
2019-05-06T21:56:54.940Z,43.20
2019-05-06T21:59:25.067Z,43.40
2019-05-06T22:01:55.220Z,43.50
2019-05-06T22:04:25.348Z,43.40
2019-05-06T22:06:56.020Z,43.80
2019-05-06T22:09:26.106Z,43.80
2019-05-06T22:11:56.258Z,44.50
2019-05-06T22:14:26.472Z,44.10
2019-05-06T22:16:56.627Z,44.90
2019-05-06T22:19:26.708Z,44.20
2019-05-06T22:22:03.185Z,44.10
2019-05-06T22:25:02.668Z,44.30
2019-05-06T22:27:32.603Z,45.00
2019-05-06T22:30:03.335Z,44.20
2019-05-06T22:32:45.607Z,44.50
2019-05-06T22:35:17.241Z,44.60
2019-05-06T22:37:47.775Z,44.50
2019-05-06T22:40:17.921Z,44.50
2019-05-06T22:42:48.081Z,44.60
2019-05-06T22:45:18.613Z,44.70
2019-05-06T22:47:48.747Z,44.50
2019-05-06T22:50:19.014Z,44.80
2019-05-06T22:52:49.559Z,44.40
2019-05-06T22:55:21.997Z,45.40
2019-05-06T22:57:52.939Z,44.60
2019-05-06T23:00:26.174Z,44.50
2019-05-06T23:03:02.304Z,44.60
2019-05-06T23:05:32.705Z,44.50
2019-05-06T23:08:03.272Z,44.60
2019-05-06T23:10:33.816Z,44.70
2019-05-06T23:13:04.058Z,44.70
2019-05-06T23:15:34.302Z,44.50
2019-05-06T23:18:04.781Z,44.50
2019-05-06T23:20:34.842Z,44.50
2019-05-06T23:23:05.092Z,44.50
2019-05-06T23:25:35.457Z,44.60
2019-05-06T23:28:05.607Z,44.70
2019-05-06T23:30:35.749Z,44.70
2019-05-06T23:33:06.201Z,44.60
2019-05-06T23:35:36.327Z,44.60
2019-05-06T23:38:43.027Z,44.50
2019-05-06T23:41:49.149Z,44.70
2019-05-06T23:44:54.854Z,44.80
2019-05-06T23:48:02.422Z,44.80
2019-05-06T23:51:08.733Z,44.80
2019-05-06T23:54:14.366Z,44.90
2019-05-06T23:56:44.214Z,45.00
2019-05-06T23:59:16.089Z,45.00
